sensor_id;sensor_type;location;lat;lon;timestamp;pressure;altitude;pressure_sealevel;temperature;humidity
15487;BME280;7845;53.698;10.078;2023-09-07T14:39:44;101900.78;;;25.33;83.53
15487;BME280;7845;53.698;10.078;2023-09-07T14:42:13;101904.56;;;25.29;82.27
15487;BME280;7845;53.698;10.078;2023-09-07T14:44:41;101892.59;;;25.19;86.92
15487;BME280;7845;53.698;10.078;2023-09-07T14:47:07;101896.41;;;25.33;83.24
15487;BME280;7845;53.698;10.078;2023-09-07T14:49:33;101890.97;;;25.34;84.51
15487;BME280;7845;53.698;10.078;2023-09-07T14:51:58;101889.53;;;25.27;85.06
15487;BME280;7845;53.698;10.078;2023-09-07T14:55:12;101898.22;;;25.49;81.97
15487;BME280;7845;53.698;10.078;2023-09-07T14:58:03;101890.81;;;25.37;85.08
15487;BME280;7845;53.698;10.078;2023-09-07T15:00:56;101899.16;;;25.48;80.54
15487;BME280;7845;53.698;10.078;2023-09-07T15:03:48;101911.44;;;25.52;81.80
15487;BME280;7845;53.698;10.078;2023-09-07T15:06:39;101898.84;;;25.54;82.09
15487;BME280;7845;53.698;10.078;2023-09-07T15:09:53;101900.47;;;25.57;80.35
15487;BME280;7845;53.698;10.078;2023-09-07T15:12:44;101897.66;;;25.60;79.72
15487;BME280;7845;53.698;10.078;2023-09-07T15:15:35;101894.13;;;25.59;80.40
15487;BME280;7845;53.698;10.078;2023-09-07T15:18:30;101902.69;;;25.66;78.99
15487;BME280;7845;53.698;10.078;2023-09-07T15:21:22;101897.50;;;25.63;79.43
15487;BME280;7845;53.698;10.078;2023-09-07T15:24:13;101882.16;;;25.66;78.59
15487;BME280;7845;53.698;10.078;2023-09-07T15:27:08;101894.00;;;25.78;74.73
15487;BME280;7845;53.698;10.078;2023-09-07T15:29:58;101881.75;;;25.74;74.32
15487;BME280;7845;53.698;10.078;2023-09-07T15:32:49;101884.06;;;25.64;75.92
15487;BME280;7845;53.698;10.078;2023-09-07T15:35:41;101884.81;;;25.66;74.31
15487;BME280;7845;53.698;10.078;2023-09-07T15:38:32;101883.13;;;25.65;75.77
15487;BME280;7845;53.698;10.078;2023-09-07T15:41:22;101887.34;;;25.69;75.60
15487;BME280;7845;53.698;10.078;2023-09-07T15:45:31;101885.16;;;25.77;72.92
15487;BME280;7845;53.698;10.078;2023-09-07T15:48:22;101888.34;;;25.84;74.46
15487;BME280;7845;53.698;10.078;2023-09-07T15:51:13;101879.53;;;25.82;75.43
15487;BME280;7845;53.698;10.078;2023-09-07T15:54:04;101883.41;;;25.76;78.21
15487;BME280;7845;53.698;10.078;2023-09-07T15:56:55;101878.44;;;25.86;76.42
15487;BME280;7845;53.698;10.078;2023-09-07T15:59:46;101880.06;;;25.89;76.58
15487;BME280;7845;53.698;10.078;2023-09-07T16:02:36;101876.59;;;25.86;76.97
15487;BME280;7845;53.698;10.078;2023-09-07T16:05:27;101877.31;;;25.90;77.03
15487;BME280;7845;53.698;10.078;2023-09-07T16:08:18;101873.91;;;25.86;77.25
15487;BME280;7845;53.698;10.078;2023-09-07T16:11:08;101871.34;;;25.85;78.59
15487;BME280;7845;53.698;10.078;2023-09-07T16:13:58;101880.56;;;25.79;75.65
15487;BME280;7845;53.698;10.078;2023-09-07T16:16:50;101877.28;;;25.74;76.39
15487;BME280;7845;53.698;10.078;2023-09-07T16:19:42;101869.41;;;25.71;77.15
15487;BME280;7845;53.698;10.078;2023-09-07T16:22:32;101868.88;;;25.65;78.16
15487;BME280;7845;53.698;10.078;2023-09-07T16:26:15;101872.75;;;25.59;79.43
15487;BME280;7845;53.698;10.078;2023-09-07T16:28:40;101873.84;;;25.55;79.69
15487;BME280;7845;53.698;10.078;2023-09-07T16:31:06;101868.81;;;25.49;79.70
15487;BME280;7845;53.698;10.078;2023-09-07T16:33:31;101878.75;;;25.46;79.74
15487;BME280;7845;53.698;10.078;2023-09-07T16:35:56;101880.66;;;25.44;78.90
15487;BME280;7845;53.698;10.078;2023-09-07T16:38:22;101872.69;;;25.42;78.92
15487;BME280;7845;53.698;10.078;2023-09-07T16:40:49;101876.19;;;25.44;80.17
15487;BME280;7845;53.698;10.078;2023-09-07T16:43:14;101872.84;;;25.39;79.58
15487;BME280;7845;53.698;10.078;2023-09-07T16:45:39;101875.63;;;25.38;79.20
15487;BME280;7845;53.698;10.078;2023-09-07T16:48:05;101869.66;;;25.33;80.62
15487;BME280;7845;53.698;10.078;2023-09-07T16:50:30;101867.16;;;25.29;80.54
15487;BME280;7845;53.698;10.078;2023-09-07T16:52:56;101862.03;;;25.25;82.87
15487;BME280;7845;53.698;10.078;2023-09-07T16:55:23;101857.38;;;25.28;81.40
15487;BME280;7845;53.698;10.078;2023-09-07T16:57:48;101852.09;;;25.27;81.27
15487;BME280;7845;53.698;10.078;2023-09-07T17:00:14;101856.94;;;25.20;82.45
15487;BME280;7845;53.698;10.078;2023-09-07T17:02:39;101855.50;;;25.13;83.97
15487;BME280;7845;53.698;10.078;2023-09-07T17:05:05;101845.22;;;25.06;85.03
15487;BME280;7845;53.698;10.078;2023-09-07T17:07:35;101844.56;;;25.01;86.44
15487;BME280;7845;53.698;10.078;2023-09-07T17:10:00;101836.94;;;24.93;89.17
15487;BME280;7845;53.698;10.078;2023-09-07T17:12:26;101836.38;;;24.87;88.61
15487;BME280;7845;53.698;10.078;2023-09-07T17:14:51;101827.88;;;24.78;89.36
15487;BME280;7845;53.698;10.078;2023-09-07T17:17:16;101812.59;;;24.63;97.89
15487;BME280;7845;53.698;10.078;2023-09-07T17:19:42;101795.13;;;24.39;100.00
15487;BME280;7845;53.698;10.078;2023-09-07T17:22:07;101784.44;;;24.39;100.00
15487;BME280;7845;53.698;10.078;2023-09-07T17:24:32;101780.25;;;24.34;100.00
15487;BME280;7845;53.698;10.078;2023-09-07T17:26:57;101765.00;;;24.18;100.00
15487;BME280;7845;53.698;10.078;2023-09-07T17:29:22;101738.72;;;24.09;100.00
15487;BME280;7845;53.698;10.078;2023-09-07T17:31:48;101715.94;;;24.02;100.00
15487;BME280;7845;53.698;10.078;2023-09-07T17:34:14;101696.47;;;24.00;100.00
15487;BME280;7845;53.698;10.078;2023-09-07T17:36:40;101677.22;;;23.94;100.00
15487;BME280;7845;53.698;10.078;2023-09-07T17:39:07;101653.53;;;23.88;100.00
15487;BME280;7845;53.698;10.078;2023-09-07T17:41:33;101629.91;;;23.80;100.00
15487;BME280;7845;53.698;10.078;2023-09-07T17:44:00;101614.38;;;23.71;100.00
15487;BME280;7845;53.698;10.078;2023-09-07T17:46:25;101597.06;;;23.61;100.00
15487;BME280;7845;53.698;10.078;2023-09-07T17:48:51;101577.06;;;23.52;100.00
15487;BME280;7845;53.698;10.078;2023-09-07T17:51:17;101571.16;;;23.46;100.00
15487;BME280;7845;53.698;10.078;2023-09-07T17:53:43;101550.13;;;23.40;100.00
15487;BME280;7845;53.698;10.078;2023-09-07T17:56:09;101536.28;;;23.32;100.00
15487;BME280;7845;53.698;10.078;2023-09-07T17:58:37;101512.75;;;23.23;100.00
15487;BME280;7845;53.698;10.078;2023-09-07T18:01:04;101513.38;;;23.28;100.00
15487;BME280;7845;53.698;10.078;2023-09-07T18:03:30;101504.91;;;23.20;100.00
15487;BME280;7845;53.698;10.078;2023-09-07T18:05:57;101493.53;;;23.16;100.00
15487;BME280;7845;53.698;10.078;2023-09-07T18:08:22;101480.59;;;23.08;100.00
15487;BME280;7845;53.698;10.078;2023-09-07T18:10:49;101479.78;;;23.06;100.00
15487;BME280;7845;53.698;10.078;2023-09-07T18:13:15;101453.13;;;22.89;100.00
15487;BME280;7845;53.698;10.078;2023-09-07T18:15:41;101435.84;;;22.79;100.00
15487;BME280;7845;53.698;10.078;2023-09-07T18:18:07;101415.78;;;22.72;100.00
15487;BME280;7845;53.698;10.078;2023-09-07T18:20:32;101401.09;;;22.64;100.00
15487;BME280;7845;53.698;10.078;2023-09-07T18:22:57;101396.06;;;22.57;100.00
15487;BME280;7845;53.698;10.078;2023-09-07T18:25:24;101375.25;;;22.47;100.00
15487;BME280;7845;53.698;10.078;2023-09-07T18:27:49;101374.34;;;22.48;100.00
15487;BME280;7845;53.698;10.078;2023-09-07T18:30:15;101363.09;;;22.41;100.00
15487;BME280;7845;53.698;10.078;2023-09-07T18:32:41;101358.06;;;22.35;100.00
15487;BME280;7845;53.698;10.078;2023-09-07T18:35:07;101347.44;;;22.35;100.00
15487;BME280;7845;53.698;10.078;2023-09-07T18:37:33;101332.63;;;22.30;100.00
15487;BME280;7845;53.698;10.078;2023-09-07T18:39:59;101328.47;;;22.24;100.00
15487;BME280;7845;53.698;10.078;2023-09-07T18:42:25;101312.16;;;22.13;100.00
15487;BME280;7845;53.698;10.078;2023-09-07T18:44:51;101310.28;;;22.15;100.00
15487;BME280;7845;53.698;10.078;2023-09-07T18:47:17;101298.91;;;22.12;100.00
15487;BME280;7845;53.698;10.078;2023-09-07T18:49:42;101288.50;;;22.07;100.00
15487;BME280;7845;53.698;10.078;2023-09-07T18:52:08;101282.47;;;22.03;100.00
15487;BME280;7845;53.698;10.078;2023-09-07T18:54:34;101268.78;;;21.92;100.00
15487;BME280;7845;53.698;10.078;2023-09-07T18:57:01;101272.13;;;21.97;100.00
15487;BME280;7845;53.698;10.078;2023-09-07T18:59:28;101273.19;;;21.93;100.00
15487;BME280;7845;53.698;10.078;2023-09-07T19:01:58;101267.38;;;21.84;100.00
15487;BME280;7845;53.698;10.078;2023-09-07T19:04:23;101253.56;;;21.77;100.00
15487;BME280;7845;53.698;10.078;2023-09-07T19:06:53;101252.00;;;21.72;100.00
15487;BME280;7845;53.698;10.078;2023-09-07T19:09:18;101246.84;;;21.69;100.00
15487;BME280;7845;53.698;10.078;2023-09-07T19:11:44;101245.03;;;21.69;100.00
15487;BME280;7845;53.698;10.078;2023-09-07T19:14:10;101238.03;;;21.68;100.00
15487;BME280;7845;53.698;10.078;2023-09-07T19:16:36;101240.16;;;21.60;100.00
15487;BME280;7845;53.698;10.078;2023-09-07T19:19:01;101221.91;;;21.52;100.00
15487;BME280;7845;53.698;10.078;2023-09-07T19:21:27;101214.00;;;21.51;100.00
15487;BME280;7845;53.698;10.078;2023-09-07T19:23:52;101212.56;;;21.44;100.00
15487;BME280;7845;53.698;10.078;2023-09-07T19:26:28;101210.97;;;21.40;100.00
15487;BME280;7845;53.698;10.078;2023-09-07T19:28:55;101208.31;;;21.40;100.00
15487;BME280;7845;53.698;10.078;2023-09-07T19:31:20;101207.75;;;21.33;100.00
15487;BME280;7845;53.698;10.078;2023-09-07T19:33:52;101210.38;;;21.33;100.00
15487;BME280;7845;53.698;10.078;2023-09-07T19:36:19;101204.44;;;21.28;100.00
15487;BME280;7845;53.698;10.078;2023-09-07T19:38:45;101199.25;;;21.25;100.00
15487;BME280;7845;53.698;10.078;2023-09-07T19:41:11;101187.31;;;21.15;100.00
15487;BME280;7845;53.698;10.078;2023-09-07T19:43:37;101184.13;;;21.07;100.00
15487;BME280;7845;53.698;10.078;2023-09-07T19:46:02;101175.97;;;21.12;100.00
15487;BME280;7845;53.698;10.078;2023-09-07T19:48:27;101183.09;;;21.11;100.00
15487;BME280;7845;53.698;10.078;2023-09-07T19:50:53;101185.91;;;21.07;100.00
15487;BME280;7845;53.698;10.078;2023-09-07T19:53:18;101188.63;;;21.05;100.00
15487;BME280;7845;53.698;10.078;2023-09-07T19:55:43;101193.09;;;21.05;100.00
15487;BME280;7845;53.698;10.078;2023-09-07T19:58:09;101211.00;;;21.00;100.00
15487;BME280;7845;53.698;10.078;2023-09-07T20:00:36;101214.84;;;20.92;100.00
15487;BME280;7845;53.698;10.078;2023-09-07T20:03:02;101214.34;;;20.84;100.00
15487;BME280;7845;53.698;10.078;2023-09-07T20:05:28;101217.13;;;20.81;100.00
15487;BME280;7845;53.698;10.078;2023-09-07T20:07:54;101218.28;;;20.74;100.00
15487;BME280;7845;53.698;10.078;2023-09-07T20:10:19;101227.38;;;20.69;100.00
15487;BME280;7845;53.698;10.078;2023-09-07T20:12:46;101219.28;;;20.72;100.00
15487;BME280;7845;53.698;10.078;2023-09-07T20:15:11;101224.97;;;20.63;100.00
15487;BME280;7845;53.698;10.078;2023-09-07T20:17:41;101244.28;;;20.66;100.00
15487;BME280;7845;53.698;10.078;2023-09-07T20:20:06;101239.38;;;20.57;100.00
15487;BME280;7845;53.698;10.078;2023-09-07T20:22:34;101244.81;;;20.54;100.00
15487;BME280;7845;53.698;10.078;2023-09-07T20:25:01;101240.41;;;20.53;100.00
15487;BME280;7845;53.698;10.078;2023-09-07T20:27:26;101251.16;;;20.50;100.00
15487;BME280;7845;53.698;10.078;2023-09-07T20:29:51;101259.47;;;20.41;100.00
15487;BME280;7845;53.698;10.078;2023-09-07T20:32:17;101254.41;;;20.35;100.00
15487;BME280;7845;53.698;10.078;2023-09-07T20:34:42;101257.03;;;20.36;100.00
15487;BME280;7845;53.698;10.078;2023-09-07T20:37:09;101259.44;;;20.42;100.00
15487;BME280;7845;53.698;10.078;2023-09-07T20:39:35;101257.88;;;20.37;100.00
15487;BME280;7845;53.698;10.078;2023-09-07T20:42:00;101257.94;;;20.35;100.00
15487;BME280;7845;53.698;10.078;2023-09-07T20:44:26;101263.28;;;20.34;100.00
15487;BME280;7845;53.698;10.078;2023-09-07T20:46:51;101258.84;;;20.34;100.00
15487;BME280;7845;53.698;10.078;2023-09-07T20:49:16;101257.88;;;20.14;100.00
15487;BME280;7845;53.698;10.078;2023-09-07T20:51:42;101261.28;;;20.17;100.00
15487;BME280;7845;53.698;10.078;2023-09-07T20:54:07;101262.44;;;20.10;100.00
15487;BME280;7845;53.698;10.078;2023-09-07T20:56:34;101272.13;;;20.11;100.00
15487;BME280;7845;53.698;10.078;2023-09-07T20:58:59;101272.13;;;20.11;100.00
15487;BME280;7845;53.698;10.078;2023-09-07T21:01:25;101278.34;;;20.10;100.00
15487;BME280;7845;53.698;10.078;2023-09-07T21:03:50;101276.88;;;20.03;100.00
15487;BME280;7845;53.698;10.078;2023-09-07T21:06:16;101283.88;;;20.04;100.00
15487;BME280;7845;53.698;10.078;2023-09-07T21:08:41;101290.13;;;20.03;100.00
15487;BME280;7845;53.698;10.078;2023-09-07T21:11:06;101292.94;;;19.99;100.00
15487;BME280;7845;53.698;10.078;2023-09-07T21:13:32;101292.91;;;20.00;100.00
15487;BME280;7845;53.698;10.078;2023-09-07T21:15:57;101293.19;;;19.93;100.00
15487;BME280;7845;53.698;10.078;2023-09-07T21:18:22;101302.75;;;19.97;100.00
15487;BME280;7845;53.698;10.078;2023-09-07T21:20:48;101297.63;;;19.92;100.00
15487;BME280;7845;53.698;10.078;2023-09-07T21:23:13;101301.25;;;19.89;100.00
15487;BME280;7845;53.698;10.078;2023-09-07T21:25:39;101301.44;;;19.85;100.00
15487;BME280;7845;53.698;10.078;2023-09-07T21:28:05;101304.97;;;19.84;100.00
15487;BME280;7845;53.698;10.078;2023-09-07T21:30:30;101317.44;;;19.82;100.00
15487;BME280;7845;53.698;10.078;2023-09-07T21:32:57;101324.63;;;19.78;100.00
15487;BME280;7845;53.698;10.078;2023-09-07T21:35:22;101328.31;;;19.74;100.00
15487;BME280;7845;53.698;10.078;2023-09-07T21:37:47;101329.28;;;19.72;100.00
15487;BME280;7845;53.698;10.078;2023-09-07T21:40:13;101331.94;;;19.72;100.00
15487;BME280;7845;53.698;10.078;2023-09-07T21:42:38;101342.41;;;19.75;100.00
15487;BME280;7845;53.698;10.078;2023-09-07T21:45:04;101340.75;;;19.72;100.00
15487;BME280;7845;53.698;10.078;2023-09-07T21:47:30;101349.91;;;19.64;100.00
15487;BME280;7845;53.698;10.078;2023-09-07T21:49:56;101343.06;;;19.57;100.00
15487;BME280;7845;53.698;10.078;2023-09-07T21:52:22;101371.53;;;19.52;100.00
15487;BME280;7845;53.698;10.078;2023-09-07T21:54:49;101374.28;;;19.49;100.00
15487;BME280;7845;53.698;10.078;2023-09-07T21:57:14;101376.06;;;19.48;100.00
15487;BME280;7845;53.698;10.078;2023-09-07T21:59:39;101382.97;;;19.52;100.00
15487;BME280;7845;53.698;10.078;2023-09-07T22:02:04;101380.34;;;19.52;100.00
15487;BME280;7845;53.698;10.078;2023-09-07T22:04:30;101383.28;;;19.43;100.00
15487;BME280;7845;53.698;10.078;2023-09-07T22:06:55;101387.91;;;19.37;100.00
15487;BME280;7845;53.698;10.078;2023-09-07T22:09:21;101387.97;;;19.35;100.00
15487;BME280;7845;53.698;10.078;2023-09-07T22:11:46;101390.72;;;19.32;100.00
15487;BME280;7845;53.698;10.078;2023-09-07T22:14:11;101388.38;;;19.23;100.00
15487;BME280;7845;53.698;10.078;2023-09-07T22:16:37;101390.75;;;19.30;100.00
15487;BME280;7845;53.698;10.078;2023-09-07T22:19:03;101391.97;;;19.20;100.00
15487;BME280;7845;53.698;10.078;2023-09-07T22:21:29;101385.63;;;19.26;100.00
15487;BME280;7845;53.698;10.078;2023-09-07T22:23:54;101385.75;;;19.21;100.00
15487;BME280;7845;53.698;10.078;2023-09-07T22:26:19;101385.47;;;19.30;100.00
15487;BME280;7845;53.698;10.078;2023-09-07T22:28:45;101383.88;;;19.25;100.00
15487;BME280;7845;53.698;10.078;2023-09-07T22:31:11;101392.59;;;19.28;100.00
15487;BME280;7845;53.698;10.078;2023-09-07T22:33:36;101379.59;;;19.21;100.00
15487;BME280;7845;53.698;10.078;2023-09-07T22:36:02;101396.41;;;19.20;100.00
15487;BME280;7845;53.698;10.078;2023-09-07T22:38:29;101387.03;;;19.10;100.00
15487;BME280;7845;53.698;10.078;2023-09-07T22:40:55;101393.50;;;19.01;100.00
15487;BME280;7845;53.698;10.078;2023-09-07T22:43:22;101389.88;;;19.04;100.00
15487;BME280;7845;53.698;10.078;2023-09-07T22:45:48;101387.13;;;19.07;100.00
15487;BME280;7845;53.698;10.078;2023-09-07T22:48:13;101387.31;;;19.02;100.00
15487;BME280;7845;53.698;10.078;2023-09-07T22:50:38;101388.00;;;19.07;100.00
15487;BME280;7845;53.698;10.078;2023-09-07T22:53:05;101391.94;;;18.96;100.00
15487;BME280;7845;53.698;10.078;2023-09-07T22:55:46;101392.06;;;18.91;100.00
15487;BME280;7845;53.698;10.078;2023-09-07T22:58:14;101393.94;;;18.88;100.00
15487;BME280;7845;53.698;10.078;2023-09-07T23:00:41;101394.91;;;18.85;100.00
15487;BME280;7845;53.698;10.078;2023-09-07T23:03:07;101396.69;;;18.85;100.00
15487;BME280;7845;53.698;10.078;2023-09-07T23:05:34;101398.56;;;18.81;100.00
15487;BME280;7845;53.698;10.078;2023-09-07T23:08:01;101397.59;;;18.84;100.00
15487;BME280;7845;53.698;10.078;2023-09-07T23:10:27;101405.38;;;18.88;100.00
15487;BME280;7845;53.698;10.078;2023-09-07T23:12:53;101396.81;;;18.82;100.00
15487;BME280;7845;53.698;10.078;2023-09-07T23:15:18;101397.00;;;18.75;100.00
15487;BME280;7845;53.698;10.078;2023-09-07T23:17:47;101393.69;;;18.67;100.00
15487;BME280;7845;53.698;10.078;2023-09-07T23:20:16;101396.44;;;18.64;100.00
15487;BME280;7845;53.698;10.078;2023-09-07T23:22:42;101398.41;;;18.58;100.00
15487;BME280;7845;53.698;10.078;2023-09-07T23:25:08;101399.44;;;18.54;100.00
15487;BME280;7845;53.698;10.078;2023-09-07T23:27:33;101397.69;;;18.53;100.00
15487;BME280;7845;53.698;10.078;2023-09-07T23:30:00;101400.03;;;18.63;100.00
15487;BME280;7845;53.698;10.078;2023-09-07T23:32:26;101396.31;;;18.69;100.00
15487;BME280;7845;53.698;10.078;2023-09-07T23:34:51;101395.53;;;18.65;100.00
15487;BME280;7845;53.698;10.078;2023-09-07T23:37:16;101395.53;;;18.65;100.00
15487;BME280;7845;53.698;10.078;2023-09-07T23:39:42;101395.84;;;18.55;100.00
15487;BME280;7845;53.698;10.078;2023-09-07T23:42:08;101395.00;;;18.54;100.00
15487;BME280;7845;53.698;10.078;2023-09-07T23:44:33;101395.16;;;18.48;100.00
15487;BME280;7845;53.698;10.078;2023-09-07T23:46:58;101393.44;;;18.46;100.00
15487;BME280;7845;53.698;10.078;2023-09-07T23:49:26;101397.03;;;18.45;100.00
15487;BME280;7845;53.698;10.078;2023-09-07T23:51:52;101390.81;;;18.46;100.00
15487;BME280;7845;53.698;10.078;2023-09-07T23:54:17;101396.25;;;18.41;100.00
15487;BME280;7845;53.698;10.078;2023-09-07T23:56:44;101395.34;;;18.42;100.00
15487;BME280;7845;53.698;10.078;2023-09-07T23:59:09;101402.59;;;18.36;100.00
